Ormond — D5KI5 — position and weather

sailwx.info

Track history (hours):
 
Tides and Currents Weather Stations Pressure Air Temp Water Temp Dewpoint Dewpoint Depression Visibility Wind Speed Wind Dir Waves Ship Positions

Ormond

Last reported at 2018-May-15 17:02 UTC. Time now 2018-May-21 06:55 UTC.
Position N 30°59' E 122°31'.

Length 292 m; draft 8.4 m.

Type: Cargo ship. MMSI: 636017319.

Date/timePositionNaut miles runAvg speedWind from/ knotsBaromVisibWave heightAir tempDewpointWater temp
2018-May-15 17:02N 30°59' E 122°31'113.6
2018-May-15 17:00N 30°59' E 122°31'612.7
2018-May-15 16:30N 31°01' E 122°24'612.8
2018-May-15 16:00N 31°02' E 122°17'4 7.7
2018-May-15 15:30N 31°02' E 122°12'5 9.5
2018-May-15 15:00N 31°04' E 122°07'510.4
2018-May-15 14:30N 31°05' E 122°01'3 6.1
2018-May-15 14:00N 31°06' E 121°58'2 3.3
2018-May-15 13:30N 31°07' E 121°56'3 5.3
2018-May-15 13:00N 31°09' E 121°53'510.0
2018-May-15 12:30N 31°12' E 121°49'2210.4
2018-May-15 10:24N 31°26' E 121°29'3 6.8
2018-May-15 10:00N 31°28' E 121°27'4 7.6
2018-May-15 09:25N 31°31' E 121°23'4 8.5
2018-May-15 08:56N 31°33' E 121°19'3 7.7
2018-May-15 08:30N 31°36' E 121°17'510.2
2018-May-15 08:00N 31°39' E 121°13'4 7.7
2018-May-15 07:30N 31°42' E 121°09'4 7.5
2018-May-15 07:01N 31°44' E 121°06'5 8.9
2018-May-15 06:30N 31°46' E 121°01'  
2018-May-12 03:56N 31°46' E 121°04'512.6
2018-May-12 03:31N 31°42' E 121°08'713.3
2018-May-12 03:01N 31°38' E 121°15'713.2
2018-May-12 02:30N 31°33' E 121°20'510.6
2018-May-12 02:00N 31°30' E 121°25'611.2
2018-May-12 01:30N 31°26' E 121°29'23 9.9
2018-May-11 23:13N 31°16' E 121°53'210.8
2018-May-11 22:59N 31°16' E 121°56'510.9
2018-May-11 22:31N 31°14' E 122°02'611.4
2018-May-11 21:59N 31°12' E 122°08'510.6
2018-May-11 21:30N 31°09' E 122°13'510.0
2018-May-11 21:00N 31°07' E 122°18'510.1
2018-May-11 20:31N 31°06' E 122°24'5 8.9
2018-May-11 20:00N 31°07' E 122°29'4 8.2
2018-May-11 19:31N 31°06' E 122°33'8 6.5
2018-May-11 18:20N 31°07' E 122°42'3 7.9
2018-May-11 18:01N 31°07' E 122°45'6 0.4
2018-May-11 04:51N 31°11' E 122°50'0 0.1
2018-May-11 04:30N 31°11' E 122°50'0 0.0
2018-May-11 04:00N 31°11' E 122°50'0 0.0
2018-May-11 02:12N 31°12' E 122°50'0 0.1
2018-May-11 01:48N 31°12' E 122°50'0 0.1
2018-May-11 01:18N 31°12' E 122°50'0 0.0
2018-May-11 01:00N 31°12' E 122°50'0 0.1
2018-May-11 00:00N 31°12' E 122°49'0 0.0
2018-May-10 21:18N 31°11' E 122°49'0 0.0
2018-May-10 21:00N 31°11' E 122°49'0 0.0
2018-May-10 20:27N 31°11' E 122°49'0 0.0
2018-May-10 19:51N 31°11' E 122°49'0 0.0
2018-May-10 19:30N 31°11' E 122°49'0 0.0
2018-May-10 18:54N 31°11' E 122°49'0 0.0
2018-May-10 14:12N 31°12' E 122°50'0 0.0
2018-May-10 13:57N 31°12' E 122°50'0 0.0
2018-May-10 12:21N 31°12' E 122°49'0 0.0
2018-May-10 12:00N 31°12' E 122°49'0 0.1
2018-May-10 11:30N 31°11' E 122°49'0 0.0
2018-May-08 09:03N 31°11' E 122°49'0 0.0
2018-May-08 09:00N 31°11' E 122°49'  
Track history (hours):
 
Tides and Currents Weather Stations Pressure Air Temp Water Temp Dewpoint Dewpoint Depression Visibility Wind Speed Wind Dir Waves Ship Positions

Ormond

Last reported at 2018-May-15 17:02 UTC. Time now 2018-May-21 06:55 UTC.
Position N 30°59' E 122°31'.

Length 292 m; draft 8.4 m.

Type: Cargo ship. MMSI: 636017319.

Date/timePositionNaut miles runAvg speedWind from/ knotsBaromVisibWave heightAir tempDewpointWater temp
2018-May-15 17:02N 30°59' E 122°31'113.6
2018-May-15 17:00N 30°59' E 122°31'612.7
2018-May-15 16:30N 31°01' E 122°24'612.8
2018-May-15 16:00N 31°02' E 122°17'4 7.7
2018-May-15 15:30N 31°02' E 122°12'5 9.5
2018-May-15 15:00N 31°04' E 122°07'510.4
2018-May-15 14:30N 31°05' E 122°01'3 6.1
2018-May-15 14:00N 31°06' E 121°58'2 3.3
2018-May-15 13:30N 31°07' E 121°56'3 5.3
2018-May-15 13:00N 31°09' E 121°53'510.0
2018-May-15 12:30N 31°12' E 121°49'2210.4
2018-May-15 10:24N 31°26' E 121°29'3 6.8
2018-May-15 10:00N 31°28' E 121°27'4 7.6
2018-May-15 09:25N 31°31' E 121°23'4 8.5
2018-May-15 08:56N 31°33' E 121°19'3 7.7
2018-May-15 08:30N 31°36' E 121°17'510.2
2018-May-15 08:00N 31°39' E 121°13'4 7.7
2018-May-15 07:30N 31°42' E 121°09'4 7.5
2018-May-15 07:01N 31°44' E 121°06'5 8.9
2018-May-15 06:30N 31°46' E 121°01'  
2018-May-12 03:56N 31°46' E 121°04'512.6
2018-May-12 03:31N 31°42' E 121°08'713.3
2018-May-12 03:01N 31°38' E 121°15'713.2
2018-May-12 02:30N 31°33' E 121°20'510.6
2018-May-12 02:00N 31°30' E 121°25'611.2
2018-May-12 01:30N 31°26' E 121°29'23 9.9
2018-May-11 23:13N 31°16' E 121°53'210.8
2018-May-11 22:59N 31°16' E 121°56'510.9
2018-May-11 22:31N 31°14' E 122°02'611.4
2018-May-11 21:59N 31°12' E 122°08'510.6
2018-May-11 21:30N 31°09' E 122°13'510.0
2018-May-11 21:00N 31°07' E 122°18'510.1
2018-May-11 20:31N 31°06' E 122°24'5 8.9
2018-May-11 20:00N 31°07' E 122°29'4 8.2
2018-May-11 19:31N 31°06' E 122°33'8 6.5
2018-May-11 18:20N 31°07' E 122°42'3 7.9
2018-May-11 18:01N 31°07' E 122°45'6 0.4
2018-May-11 04:51N 31°11' E 122°50'0 0.1
2018-May-11 04:30N 31°11' E 122°50'0 0.0
2018-May-11 04:00N 31°11' E 122°50'0 0.0
2018-May-11 02:12N 31°12' E 122°50'0 0.1
2018-May-11 01:48N 31°12' E 122°50'0 0.1
2018-May-11 01:18N 31°12' E 122°50'0 0.0
2018-May-11 01:00N 31°12' E 122°50'0 0.1
2018-May-11 00:00N 31°12' E 122°49'0 0.0
2018-May-10 21:18N 31°11' E 122°49'0 0.0
2018-May-10 21:00N 31°11' E 122°49'0 0.0
2018-May-10 20:27N 31°11' E 122°49'0 0.0
2018-May-10 19:51N 31°11' E 122°49'0 0.0
2018-May-10 19:30N 31°11' E 122°49'0 0.0
2018-May-10 18:54N 31°11' E 122°49'0 0.0
2018-May-10 14:12N 31°12' E 122°50'0 0.0
2018-May-10 13:57N 31°12' E 122°50'0 0.0
2018-May-10 12:21N 31°12' E 122°49'0 0.0
2018-May-10 12:00N 31°12' E 122°49'0 0.1
2018-May-10 11:30N 31°11' E 122°49'0 0.0
2018-May-08 09:03N 31°11' E 122°49'0 0.0
2018-May-08 09:00N 31°11' E 122°49'  

Dump ship's entire track history